sensor_id;sensor_type;location;lat;lon;timestamp;P1;durP1;ratioP1;P2;durP2;ratioP2
65368;SDS011;51970;53.484;49.488;2023-10-31T00:02:07;9.20;;;4.55;;
65368;SDS011;51970;53.484;49.488;2023-10-31T00:04:34;10.45;;;5.65;;
65368;SDS011;51970;53.484;49.488;2023-10-31T00:07:00;13.73;;;4.93;;
65368;SDS011;51970;53.484;49.488;2023-10-31T00:09:27;11.27;;;5.47;;
65368;SDS011;51970;53.484;49.488;2023-10-31T00:11:53;9.18;;;5.43;;
65368;SDS011;51970;53.484;49.488;2023-10-31T00:14:19;12.77;;;6.40;;
65368;SDS011;51970;53.484;49.488;2023-10-31T00:16:45;10.20;;;4.60;;
65368;SDS011;51970;53.484;49.488;2023-10-31T00:19:14;11.60;;;6.35;;
65368;SDS011;51970;53.484;49.488;2023-10-31T00:21:40;9.98;;;5.90;;
65368;SDS011;51970;53.484;49.488;2023-10-31T00:24:06;10.27;;;5.40;;
65368;SDS011;51970;53.484;49.488;2023-10-31T00:26:33;10.00;;;6.00;;
65368;SDS011;51970;53.484;49.488;2023-10-31T00:28:59;11.38;;;5.82;;
65368;SDS011;51970;53.484;49.488;2023-10-31T00:31:25;10.05;;;4.85;;
65368;SDS011;51970;53.484;49.488;2023-10-31T00:33:52;9.52;;;5.05;;
65368;SDS011;51970;53.484;49.488;2023-10-31T00:36:18;10.63;;;5.88;;
65368;SDS011;51970;53.484;49.488;2023-10-31T00:38:44;10.85;;;5.95;;
65368;SDS011;51970;53.484;49.488;2023-10-31T00:41:10;11.60;;;5.70;;
65368;SDS011;51970;53.484;49.488;2023-10-31T00:43:37;10.85;;;7.78;;
65368;SDS011;51970;53.484;49.488;2023-10-31T00:46:03;15.05;;;6.00;;
65368;SDS011;51970;53.484;49.488;2023-10-31T00:48:30;12.73;;;7.88;;
65368;SDS011;51970;53.484;49.488;2023-10-31T00:51:02;10.77;;;7.25;;
65368;SDS011;51970;53.484;49.488;2023-10-31T00:53:29;9.77;;;5.18;;
65368;SDS011;51970;53.484;49.488;2023-10-31T00:55:57;14.68;;;8.35;;
65368;SDS011;51970;53.484;49.488;2023-10-31T00:58:23;14.05;;;9.68;;
65368;SDS011;51970;53.484;49.488;2023-10-31T01:00:49;10.77;;;5.53;;
65368;SDS011;51970;53.484;49.488;2023-10-31T01:03:16;11.93;;;6.63;;
65368;SDS011;51970;53.484;49.488;2023-10-31T01:05:42;11.73;;;5.95;;
65368;SDS011;51970;53.484;49.488;2023-10-31T01:08:08;10.13;;;5.50;;
65368;SDS011;51970;53.484;49.488;2023-10-31T01:10:34;10.65;;;5.85;;
65368;SDS011;51970;53.484;49.488;2023-10-31T01:13:01;10.93;;;5.13;;
65368;SDS011;51970;53.484;49.488;2023-10-31T01:15:27;8.88;;;4.90;;
65368;SDS011;51970;53.484;49.488;2023-10-31T01:17:53;9.88;;;4.85;;
65368;SDS011;51970;53.484;49.488;2023-10-31T01:20:20;9.75;;;5.05;;
65368;SDS011;51970;53.484;49.488;2023-10-31T01:22:46;12.02;;;5.45;;
65368;SDS011;51970;53.484;49.488;2023-10-31T01:25:12;11.15;;;5.45;;
65368;SDS011;51970;53.484;49.488;2023-10-31T01:27:38;9.32;;;5.22;;
65368;SDS011;51970;53.484;49.488;2023-10-31T01:30:05;10.85;;;5.30;;
65368;SDS011;51970;53.484;49.488;2023-10-31T01:32:32;10.25;;;5.13;;
65368;SDS011;51970;53.484;49.488;2023-10-31T01:34:58;11.23;;;5.85;;
65368;SDS011;51970;53.484;49.488;2023-10-31T01:37:24;16.77;;;5.97;;
65368;SDS011;51970;53.484;49.488;2023-10-31T01:39:50;10.98;;;5.50;;
65368;SDS011;51970;53.484;49.488;2023-10-31T01:42:17;12.05;;;7.78;;
65368;SDS011;51970;53.484;49.488;2023-10-31T01:44:43;11.57;;;5.30;;
65368;SDS011;51970;53.484;49.488;2023-10-31T01:47:10;12.02;;;5.85;;
65368;SDS011;51970;53.484;49.488;2023-10-31T01:49:36;11.30;;;5.15;;
65368;SDS011;51970;53.484;49.488;2023-10-31T01:52:03;10.45;;;5.25;;
65368;SDS011;51970;53.484;49.488;2023-10-31T01:54:29;10.98;;;5.18;;
65368;SDS011;51970;53.484;49.488;2023-10-31T01:56:56;8.95;;;4.93;;
65368;SDS011;51970;53.484;49.488;2023-10-31T01:59:24;8.85;;;4.93;;
65368;SDS011;51970;53.484;49.488;2023-10-31T02:01:51;10.73;;;4.53;;
65368;SDS011;51970;53.484;49.488;2023-10-31T02:04:18;14.57;;;5.15;;
65368;SDS011;51970;53.484;49.488;2023-10-31T02:06:44;10.23;;;4.78;;
65368;SDS011;51970;53.484;49.488;2023-10-31T02:09:11;12.07;;;5.22;;
65368;SDS011;51970;53.484;49.488;2023-10-31T02:11:37;12.02;;;5.65;;
65368;SDS011;51970;53.484;49.488;2023-10-31T02:14:03;13.48;;;5.97;;
65368;SDS011;51970;53.484;49.488;2023-10-31T02:16:30;9.80;;;5.45;;
65368;SDS011;51970;53.484;49.488;2023-10-31T02:18:56;12.02;;;5.07;;
65368;SDS011;51970;53.484;49.488;2023-10-31T02:21:22;12.95;;;7.65;;
65368;SDS011;51970;53.484;49.488;2023-10-31T02:23:58;9.18;;;5.05;;
65368;SDS011;51970;53.484;49.488;2023-10-31T02:26:32;10.00;;;5.15;;
65368;SDS011;51970;53.484;49.488;2023-10-31T02:28:59;11.70;;;7.78;;
65368;SDS011;51970;53.484;49.488;2023-10-31T02:31:27;11.60;;;4.55;;
65368;SDS011;51970;53.484;49.488;2023-10-31T02:33:53;10.93;;;5.68;;
65368;SDS011;51970;53.484;49.488;2023-10-31T02:36:20;10.63;;;5.35;;
65368;SDS011;51970;53.484;49.488;2023-10-31T02:38:46;12.77;;;5.60;;
65368;SDS011;51970;53.484;49.488;2023-10-31T02:41:13;11.88;;;5.30;;
65368;SDS011;51970;53.484;49.488;2023-10-31T02:43:40;10.85;;;4.95;;
65368;SDS011;51970;53.484;49.488;2023-10-31T02:46:06;13.15;;;6.00;;
65368;SDS011;51970;53.484;49.488;2023-10-31T02:48:33;10.05;;;5.13;;
65368;SDS011;51970;53.484;49.488;2023-10-31T02:51:05;11.32;;;5.85;;
65368;SDS011;51970;53.484;49.488;2023-10-31T02:53:33;11.25;;;6.07;;
65368;SDS011;51970;53.484;49.488;2023-10-31T02:56:00;12.10;;;5.82;;
65368;SDS011;51970;53.484;49.488;2023-10-31T02:58:26;11.35;;;5.15;;
65368;SDS011;51970;53.484;49.488;2023-10-31T03:00:52;11.27;;;4.93;;
65368;SDS011;51970;53.484;49.488;2023-10-31T03:03:19;9.32;;;5.03;;
65368;SDS011;51970;53.484;49.488;2023-10-31T03:05:45;11.55;;;6.20;;
65368;SDS011;51970;53.484;49.488;2023-10-31T03:08:11;12.48;;;5.47;;
65368;SDS011;51970;53.484;49.488;2023-10-31T03:10:38;9.77;;;5.18;;
65368;SDS011;51970;53.484;49.488;2023-10-31T03:13:04;8.68;;;5.00;;
65368;SDS011;51970;53.484;49.488;2023-10-31T03:15:31;9.60;;;5.28;;
65368;SDS011;51970;53.484;49.488;2023-10-31T03:17:57;14.35;;;5.60;;
65368;SDS011;51970;53.484;49.488;2023-10-31T03:20:23;10.20;;;5.40;;
65368;SDS011;51970;53.484;49.488;2023-10-31T03:22:49;12.90;;;5.20;;
65368;SDS011;51970;53.484;49.488;2023-10-31T03:25:16;10.13;;;5.35;;
65368;SDS011;51970;53.484;49.488;2023-10-31T03:27:42;9.25;;;5.15;;
65368;SDS011;51970;53.484;49.488;2023-10-31T03:30:08;10.52;;;5.82;;
65368;SDS011;51970;53.484;49.488;2023-10-31T03:32:35;11.90;;;5.25;;
65368;SDS011;51970;53.484;49.488;2023-10-31T03:35:06;10.32;;;5.68;;
65368;SDS011;51970;53.484;49.488;2023-10-31T03:37:32;13.13;;;5.80;;
65368;SDS011;51970;53.484;49.488;2023-10-31T03:39:58;9.40;;;5.47;;
65368;SDS011;51970;53.484;49.488;2023-10-31T03:42:25;10.88;;;5.90;;
65368;SDS011;51970;53.484;49.488;2023-10-31T03:44:51;9.50;;;4.70;;
65368;SDS011;51970;53.484;49.488;2023-10-31T03:47:17;12.70;;;5.50;;
65368;SDS011;51970;53.484;49.488;2023-10-31T03:49:43;12.20;;;5.28;;
65368;SDS011;51970;53.484;49.488;2023-10-31T03:52:10;8.85;;;4.60;;
65368;SDS011;51970;53.484;49.488;2023-10-31T03:54:36;11.98;;;5.45;;
65368;SDS011;51970;53.484;49.488;2023-10-31T03:57:02;12.73;;;3.67;;
65368;SDS011;51970;53.484;49.488;2023-10-31T03:59:28;11.50;;;5.55;;
65368;SDS011;51970;53.484;49.488;2023-10-31T04:01:55;11.48;;;5.30;;
65368;SDS011;51970;53.484;49.488;2023-10-31T04:04:21;10.10;;;5.85;;
65368;SDS011;51970;53.484;49.488;2023-10-31T04:06:47;10.10;;;5.55;;
65368;SDS011;51970;53.484;49.488;2023-10-31T04:09:13;9.15;;;5.10;;
65368;SDS011;51970;53.484;49.488;2023-10-31T04:11:40;11.23;;;5.32;;
65368;SDS011;51970;53.484;49.488;2023-10-31T04:14:07;11.20;;;4.68;;
65368;SDS011;51970;53.484;49.488;2023-10-31T04:16:37;9.93;;;5.25;;
65368;SDS011;51970;53.484;49.488;2023-10-31T04:19:04;11.88;;;5.65;;
65368;SDS011;51970;53.484;49.488;2023-10-31T04:21:30;9.63;;;4.70;;
65368;SDS011;51970;53.484;49.488;2023-10-31T04:23:57;9.18;;;5.97;;
65368;SDS011;51970;53.484;49.488;2023-10-31T04:26:23;9.30;;;4.90;;
65368;SDS011;51970;53.484;49.488;2023-10-31T04:28:49;10.25;;;4.00;;
65368;SDS011;51970;53.484;49.488;2023-10-31T04:31:16;9.45;;;5.32;;
65368;SDS011;51970;53.484;49.488;2023-10-31T04:33:42;11.90;;;5.80;;
65368;SDS011;51970;53.484;49.488;2023-10-31T04:36:09;9.80;;;4.82;;
65368;SDS011;51970;53.484;49.488;2023-10-31T04:38:36;9.35;;;5.22;;
65368;SDS011;51970;53.484;49.488;2023-10-31T04:41:03;10.82;;;5.07;;
65368;SDS011;51970;53.484;49.488;2023-10-31T04:43:30;7.82;;;4.95;;
65368;SDS011;51970;53.484;49.488;2023-10-31T04:45:56;9.45;;;4.43;;
65368;SDS011;51970;53.484;49.488;2023-10-31T04:48:22;12.60;;;5.85;;
65368;SDS011;51970;53.484;49.488;2023-10-31T04:50:48;10.00;;;5.85;;
65368;SDS011;51970;53.484;49.488;2023-10-31T04:53:15;10.90;;;5.72;;
65368;SDS011;51970;53.484;49.488;2023-10-31T04:55:41;10.45;;;5.47;;
65368;SDS011;51970;53.484;49.488;2023-10-31T04:58:07;15.77;;;6.07;;
65368;SDS011;51970;53.484;49.488;2023-10-31T05:00:34;12.23;;;5.85;;
65368;SDS011;51970;53.484;49.488;2023-10-31T05:03:00;9.27;;;4.97;;
65368;SDS011;51970;53.484;49.488;2023-10-31T05:05:28;11.20;;;8.38;;
65368;SDS011;51970;53.484;49.488;2023-10-31T05:07:54;11.38;;;7.22;;
65368;SDS011;51970;53.484;49.488;2023-10-31T05:10:20;9.50;;;5.60;;
65368;SDS011;51970;53.484;49.488;2023-10-31T05:12:47;10.18;;;5.53;;
65368;SDS011;51970;53.484;49.488;2023-10-31T05:15:13;12.52;;;5.15;;
65368;SDS011;51970;53.484;49.488;2023-10-31T05:17:39;12.02;;;4.55;;
65368;SDS011;51970;53.484;49.488;2023-10-31T05:20:06;8.15;;;4.68;;
65368;SDS011;51970;53.484;49.488;2023-10-31T05:22:32;13.05;;;4.45;;
65368;SDS011;51970;53.484;49.488;2023-10-31T05:24:58;9.32;;;4.35;;
65368;SDS011;51970;53.484;49.488;2023-10-31T05:27:25;7.80;;;4.13;;
65368;SDS011;51970;53.484;49.488;2023-10-31T05:29:51;8.90;;;4.80;;
65368;SDS011;51970;53.484;49.488;2023-10-31T05:32:17;11.50;;;9.27;;
65368;SDS011;51970;53.484;49.488;2023-10-31T05:34:43;9.88;;;4.80;;
65368;SDS011;51970;53.484;49.488;2023-10-31T05:37:10;9.77;;;4.55;;
65368;SDS011;51970;53.484;49.488;2023-10-31T05:39:36;11.07;;;5.00;;
65368;SDS011;51970;53.484;49.488;2023-10-31T05:42:02;9.50;;;4.22;;
65368;SDS011;51970;53.484;49.488;2023-10-31T05:44:29;9.32;;;4.40;;
65368;SDS011;51970;53.484;49.488;2023-10-31T05:46:55;7.88;;;4.20;;
65368;SDS011;51970;53.484;49.488;2023-10-31T05:49:21;12.38;;;6.05;;
65368;SDS011;51970;53.484;49.488;2023-10-31T05:51:51;9.15;;;4.75;;
65368;SDS011;51970;53.484;49.488;2023-10-31T05:54:18;9.00;;;4.07;;
65368;SDS011;51970;53.484;49.488;2023-10-31T05:56:44;9.32;;;5.13;;
65368;SDS011;51970;53.484;49.488;2023-10-31T05:59:11;11.88;;;6.88;;
65368;SDS011;51970;53.484;49.488;2023-10-31T06:01:37;9.80;;;4.32;;
65368;SDS011;51970;53.484;49.488;2023-10-31T06:04:04;8.95;;;3.72;;
65368;SDS011;51970;53.484;49.488;2023-10-31T06:06:36;11.63;;;4.78;;
65368;SDS011;51970;53.484;49.488;2023-10-31T06:09:03;10.23;;;4.95;;
65368;SDS011;51970;53.484;49.488;2023-10-31T06:11:30;10.02;;;3.78;;
65368;SDS011;51970;53.484;49.488;2023-10-31T06:13:56;12.10;;;4.68;;
65368;SDS011;51970;53.484;49.488;2023-10-31T06:16:24;10.70;;;5.80;;
65368;SDS011;51970;53.484;49.488;2023-10-31T06:18:50;12.00;;;4.75;;
65368;SDS011;51970;53.484;49.488;2023-10-31T06:21:16;7.18;;;3.75;;
65368;SDS011;51970;53.484;49.488;2023-10-31T06:23:43;12.68;;;5.40;;
65368;SDS011;51970;53.484;49.488;2023-10-31T06:26:11;12.60;;;4.90;;
65368;SDS011;51970;53.484;49.488;2023-10-31T06:28:38;13.95;;;5.38;;
65368;SDS011;51970;53.484;49.488;2023-10-31T06:31:05;9.88;;;5.03;;
65368;SDS011;51970;53.484;49.488;2023-10-31T06:33:32;11.90;;;5.47;;
65368;SDS011;51970;53.484;49.488;2023-10-31T06:35:58;15.25;;;5.88;;
65368;SDS011;51970;53.484;49.488;2023-10-31T06:38:24;9.73;;;4.68;;
65368;SDS011;51970;53.484;49.488;2023-10-31T06:40:50;15.07;;;8.30;;
65368;SDS011;51970;53.484;49.488;2023-10-31T06:43:18;10.27;;;5.60;;
65368;SDS011;51970;53.484;49.488;2023-10-31T06:45:44;13.82;;;4.63;;
65368;SDS011;51970;53.484;49.488;2023-10-31T06:48:10;12.50;;;6.63;;
65368;SDS011;51970;53.484;49.488;2023-10-31T06:50:37;15.80;;;7.70;;
65368;SDS011;51970;53.484;49.488;2023-10-31T06:53:03;11.82;;;6.07;;
65368;SDS011;51970;53.484;49.488;2023-10-31T06:55:29;11.40;;;5.95;;
65368;SDS011;51970;53.484;49.488;2023-10-31T06:57:55;11.82;;;7.47;;
65368;SDS011;51970;53.484;49.488;2023-10-31T07:00:21;16.38;;;9.73;;
65368;SDS011;51970;53.484;49.488;2023-10-31T07:02:48;15.05;;;5.32;;
65368;SDS011;51970;53.484;49.488;2023-10-31T07:05:14;10.88;;;5.63;;
65368;SDS011;51970;53.484;49.488;2023-10-31T07:07:41;17.15;;;9.70;;
65368;SDS011;51970;53.484;49.488;2023-10-31T07:10:08;11.98;;;5.20;;
65368;SDS011;51970;53.484;49.488;2023-10-31T07:12:34;9.77;;;5.65;;
65368;SDS011;51970;53.484;49.488;2023-10-31T07:15:01;11.25;;;4.80;;
65368;SDS011;51970;53.484;49.488;2023-10-31T07:17:27;9.93;;;5.20;;
65368;SDS011;51970;53.484;49.488;2023-10-31T07:19:54;11.95;;;6.15;;
65368;SDS011;51970;53.484;49.488;2023-10-31T07:22:21;10.45;;;5.57;;
65368;SDS011;51970;53.484;49.488;2023-10-31T07:24:50;12.52;;;5.47;;
65368;SDS011;51970;53.484;49.488;2023-10-31T07:27:17;9.85;;;4.13;;
65368;SDS011;51970;53.484;49.488;2023-10-31T07:29:44;12.13;;;4.70;;
65368;SDS011;51970;53.484;49.488;2023-10-31T07:32:11;14.65;;;5.07;;
65368;SDS011;51970;53.484;49.488;2023-10-31T07:34:40;10.27;;;5.00;;
65368;SDS011;51970;53.484;49.488;2023-10-31T07:37:08;12.52;;;5.60;;
65368;SDS011;51970;53.484;49.488;2023-10-31T07:39:34;12.25;;;5.45;;
65368;SDS011;51970;53.484;49.488;2023-10-31T07:42:00;11.73;;;5.03;;
65368;SDS011;51970;53.484;49.488;2023-10-31T07:44:26;10.05;;;4.75;;
65368;SDS011;51970;53.484;49.488;2023-10-31T07:46:53;13.60;;;5.95;;
65368;SDS011;51970;53.484;49.488;2023-10-31T07:49:19;10.90;;;6.30;;
65368;SDS011;51970;53.484;49.488;2023-10-31T07:51:45;10.75;;;5.28;;
65368;SDS011;51970;53.484;49.488;2023-10-31T07:54:14;10.57;;;5.00;;
65368;SDS011;51970;53.484;49.488;2023-10-31T07:56:41;9.52;;;5.75;;
65368;SDS011;51970;53.484;49.488;2023-10-31T07:59:08;13.90;;;5.45;;
65368;SDS011;51970;53.484;49.488;2023-10-31T08:01:34;11.02;;;5.28;;
65368;SDS011;51970;53.484;49.488;2023-10-31T08:04:01;8.60;;;4.55;;
65368;SDS011;51970;53.484;49.488;2023-10-31T08:06:27;12.88;;;8.95;;
65368;SDS011;51970;53.484;49.488;2023-10-31T08:08:54;10.38;;;4.55;;
65368;SDS011;51970;53.484;49.488;2023-10-31T08:11:20;12.32;;;5.28;;
65368;SDS011;51970;53.484;49.488;2023-10-31T08:13:46;13.65;;;6.40;;
65368;SDS011;51970;53.484;49.488;2023-10-31T08:16:16;13.65;;;4.97;;
65368;SDS011;51970;53.484;49.488;2023-10-31T08:18:46;11.13;;;5.50;;
65368;SDS011;51970;53.484;49.488;2023-10-31T08:21:13;11.07;;;5.20;;
65368;SDS011;51970;53.484;49.488;2023-10-31T08:23:39;8.68;;;4.95;;
65368;SDS011;51970;53.484;49.488;2023-10-31T08:26:05;8.88;;;4.95;;
65368;SDS011;51970;53.484;49.488;2023-10-31T08:28:31;8.60;;;4.70;;
65368;SDS011;51970;53.484;49.488;2023-10-31T08:30:58;12.80;;;5.43;;
65368;SDS011;51970;53.484;49.488;2023-10-31T08:33:24;11.65;;;5.45;;
65368;SDS011;51970;53.484;49.488;2023-10-31T08:35:50;9.15;;;4.95;;
65368;SDS011;51970;53.484;49.488;2023-10-31T08:38:17;9.73;;;5.30;;
65368;SDS011;51970;53.484;49.488;2023-10-31T08:40:43;11.30;;;5.07;;
65368;SDS011;51970;53.484;49.488;2023-10-31T08:43:10;11.50;;;4.90;;
65368;SDS011;51970;53.484;49.488;2023-10-31T08:45:36;12.02;;;5.63;;
65368;SDS011;51970;53.484;49.488;2023-10-31T08:48:02;17.83;;;5.60;;
65368;SDS011;51970;53.484;49.488;2023-10-31T08:50:29;11.82;;;5.32;;
65368;SDS011;51970;53.484;49.488;2023-10-31T08:52:55;11.25;;;5.78;;
65368;SDS011;51970;53.484;49.488;2023-10-31T08:55:22;8.88;;;4.85;;
65368;SDS011;51970;53.484;49.488;2023-10-31T08:57:48;11.90;;;5.30;;
65368;SDS011;51970;53.484;49.488;2023-10-31T09:00:15;9.95;;;5.00;;
65368;SDS011;51970;53.484;49.488;2023-10-31T09:02:41;11.05;;;5.00;;
65368;SDS011;51970;53.484;49.488;2023-10-31T09:05:08;9.63;;;5.10;;
65368;SDS011;51970;53.484;49.488;2023-10-31T09:07:35;10.45;;;5.07;;
65368;SDS011;51970;53.484;49.488;2023-10-31T09:10:01;10.90;;;4.93;;
65368;SDS011;51970;53.484;49.488;2023-10-31T09:12:29;10.02;;;5.13;;
65368;SDS011;51970;53.484;49.488;2023-10-31T09:14:55;12.73;;;5.65;;
65368;SDS011;51970;53.484;49.488;2023-10-31T09:17:21;13.60;;;8.10;;
65368;SDS011;51970;53.484;49.488;2023-10-31T09:19:47;10.13;;;5.28;;
65368;SDS011;51970;53.484;49.488;2023-10-31T09:22:13;10.00;;;4.78;;
65368;SDS011;51970;53.484;49.488;2023-10-31T09:24:40;10.63;;;4.70;;
65368;SDS011;51970;53.484;49.488;2023-10-31T09:27:06;10.50;;;6.25;;
65368;SDS011;51970;53.484;49.488;2023-10-31T09:29:32;9.65;;;5.05;;
65368;SDS011;51970;53.484;49.488;2023-10-31T09:31:59;10.65;;;5.55;;
65368;SDS011;51970;53.484;49.488;2023-10-31T09:34:25;8.45;;;5.07;;
65368;SDS011;51970;53.484;49.488;2023-10-31T09:36:51;12.23;;;5.00;;
65368;SDS011;51970;53.484;49.488;2023-10-31T09:39:18;11.20;;;7.30;;
65368;SDS011;51970;53.484;49.488;2023-10-31T09:41:44;10.48;;;5.50;;
65368;SDS011;51970;53.484;49.488;2023-10-31T09:44:10;12.00;;;5.28;;
65368;SDS011;51970;53.484;49.488;2023-10-31T09:46:38;13.20;;;5.78;;
65368;SDS011;51970;53.484;49.488;2023-10-31T09:49:06;13.15;;;4.85;;
65368;SDS011;51970;53.484;49.488;2023-10-31T09:51:34;10.52;;;4.90;;
65368;SDS011;51970;53.484;49.488;2023-10-31T09:54:01;9.63;;;5.22;;
65368;SDS011;51970;53.484;49.488;2023-10-31T09:56:28;12.38;;;5.45;;
65368;SDS011;51970;53.484;49.488;2023-10-31T09:59:01;9.48;;;4.63;;
65368;SDS011;51970;53.484;49.488;2023-10-31T10:01:30;9.60;;;5.25;;
65368;SDS011;51970;53.484;49.488;2023-10-31T10:03:57;12.07;;;5.30;;
65368;SDS011;51970;53.484;49.488;2023-10-31T10:06:23;10.50;;;5.45;;
65368;SDS011;51970;53.484;49.488;2023-10-31T10:08:50;17.48;;;6.22;;
65368;SDS011;51970;53.484;49.488;2023-10-31T10:11:17;10.13;;;5.13;;
65368;SDS011;51970;53.484;49.488;2023-10-31T10:13:43;12.18;;;5.45;;
65368;SDS011;51970;53.484;49.488;2023-10-31T10:16:10;9.70;;;5.97;;
65368;SDS011;51970;53.484;49.488;2023-10-31T10:18:36;12.00;;;5.28;;
65368;SDS011;51970;53.484;49.488;2023-10-31T10:21:06;9.20;;;5.20;;
65368;SDS011;51970;53.484;49.488;2023-10-31T10:23:33;10.38;;;4.97;;
65368;SDS011;51970;53.484;49.488;2023-10-31T10:26:01;12.77;;;5.65;;
65368;SDS011;51970;53.484;49.488;2023-10-31T10:28:28;10.93;;;5.47;;
65368;SDS011;51970;53.484;49.488;2023-10-31T10:30:58;11.80;;;5.75;;
65368;SDS011;51970;53.484;49.488;2023-10-31T10:33:25;10.63;;;4.28;;
65368;SDS011;51970;53.484;49.488;2023-10-31T10:35:51;9.82;;;4.70;;
65368;SDS011;51970;53.484;49.488;2023-10-31T10:38:20;9.00;;;4.60;;
65368;SDS011;51970;53.484;49.488;2023-10-31T10:40:48;13.25;;;5.18;;
65368;SDS011;51970;53.484;49.488;2023-10-31T10:43:22;10.02;;;3.92;;
65368;SDS011;51970;53.484;49.488;2023-10-31T10:45:53;8.15;;;4.35;;
65368;SDS011;51970;53.484;49.488;2023-10-31T10:48:27;8.43;;;4.50;;
65368;SDS011;51970;53.484;49.488;2023-10-31T10:50:57;11.93;;;5.15;;
65368;SDS011;51970;53.484;49.488;2023-10-31T10:53:36;9.32;;;5.05;;
65368;SDS011;51970;53.484;49.488;2023-10-31T11:01:20;13.20;;;9.23;;
65368;SDS011;51970;53.484;49.488;2023-10-31T11:03:48;11.00;;;5.22;;
65368;SDS011;51970;53.484;49.488;2023-10-31T11:06:15;8.13;;;4.65;;
65368;SDS011;51970;53.484;49.488;2023-10-31T11:08:41;7.80;;;3.65;;
65368;SDS011;51970;53.484;49.488;2023-10-31T11:11:09;13.90;;;5.05;;
65368;SDS011;51970;53.484;49.488;2023-10-31T11:13:36;9.05;;;4.03;;
65368;SDS011;51970;53.484;49.488;2023-10-31T11:16:04;12.15;;;3.83;;
65368;SDS011;51970;53.484;49.488;2023-10-31T11:18:37;10.68;;;3.72;;
65368;SDS011;51970;53.484;49.488;2023-10-31T11:21:07;8.25;;;3.47;;
65368;SDS011;51970;53.484;49.488;2023-10-31T11:23:33;8.60;;;4.05;;
65368;SDS011;51970;53.484;49.488;2023-10-31T11:25:59;7.60;;;4.15;;
65368;SDS011;51970;53.484;49.488;2023-10-31T11:28:26;8.05;;;4.38;;
65368;SDS011;51970;53.484;49.488;2023-10-31T11:30:52;9.50;;;4.75;;
65368;SDS011;51970;53.484;49.488;2023-10-31T11:33:24;8.07;;;4.38;;
65368;SDS011;51970;53.484;49.488;2023-10-31T11:35:51;9.73;;;4.85;;
65368;SDS011;51970;53.484;49.488;2023-10-31T11:38:34;8.75;;;3.80;;
65368;SDS011;51970;53.484;49.488;2023-10-31T11:41:02;9.98;;;3.97;;
65368;SDS011;51970;53.484;49.488;2023-10-31T11:46:06;6.88;;;3.55;;
65368;SDS011;51970;53.484;49.488;2023-10-31T11:48:46;8.20;;;4.25;;
65368;SDS011;51970;53.484;49.488;2023-10-31T11:51:14;8.13;;;3.70;;
65368;SDS011;51970;53.484;49.488;2023-10-31T11:53:40;8.77;;;3.75;;
65368;SDS011;51970;53.484;49.488;2023-10-31T11:56:07;8.50;;;3.72;;
65368;SDS011;51970;53.484;49.488;2023-10-31T11:58:36;10.18;;;6.45;;
65368;SDS011;51970;53.484;49.488;2023-10-31T12:01:06;9.40;;;6.32;;
65368;SDS011;51970;53.484;49.488;2023-10-31T12:03:38;9.43;;;3.60;;
65368;SDS011;51970;53.484;49.488;2023-10-31T12:06:13;9.65;;;3.75;;
65368;SDS011;51970;53.484;49.488;2023-10-31T12:08:41;7.70;;;3.70;;
65368;SDS011;51970;53.484;49.488;2023-10-31T12:11:13;8.90;;;4.57;;
65368;SDS011;51970;53.484;49.488;2023-10-31T12:13:54;7.97;;;3.88;;
65368;SDS011;51970;53.484;49.488;2023-10-31T12:16:22;7.07;;;3.13;;
65368;SDS011;51970;53.484;49.488;2023-10-31T12:18:54;7.28;;;3.58;;
65368;SDS011;51970;53.484;49.488;2023-10-31T12:24:13;11.98;;;6.20;;
65368;SDS011;51970;53.484;49.488;2023-10-31T12:26:41;9.20;;;3.90;;
65368;SDS011;51970;53.484;49.488;2023-10-31T12:29:18;8.38;;;4.57;;
65368;SDS011;51970;53.484;49.488;2023-10-31T12:31:48;9.25;;;4.30;;
65368;SDS011;51970;53.484;49.488;2023-10-31T12:34:19;8.38;;;3.72;;
65368;SDS011;51970;53.484;49.488;2023-10-31T12:36:48;10.60;;;5.13;;
65368;SDS011;51970;53.484;49.488;2023-10-31T12:39:16;12.43;;;6.30;;
65368;SDS011;51970;53.484;49.488;2023-10-31T12:41:46;12.38;;;5.03;;
65368;SDS011;51970;53.484;49.488;2023-10-31T12:44:14;11.20;;;4.90;;
65368;SDS011;51970;53.484;49.488;2023-10-31T12:46:49;14.43;;;6.22;;
65368;SDS011;51970;53.484;49.488;2023-10-31T12:49:19;13.10;;;6.15;;
65368;SDS011;51970;53.484;49.488;2023-10-31T12:51:55;14.27;;;6.65;;
65368;SDS011;51970;53.484;49.488;2023-10-31T12:54:33;17.65;;;9.10;;
65368;SDS011;51970;53.484;49.488;2023-10-31T12:57:00;16.42;;;8.00;;
65368;SDS011;51970;53.484;49.488;2023-10-31T12:59:31;13.70;;;7.15;;
65368;SDS011;51970;53.484;49.488;2023-10-31T13:01:58;13.07;;;5.72;;
65368;SDS011;51970;53.484;49.488;2023-10-31T13:04:26;14.77;;;6.40;;
65368;SDS011;51970;53.484;49.488;2023-10-31T13:06:59;9.60;;;5.10;;
65368;SDS011;51970;53.484;49.488;2023-10-31T13:09:28;14.95;;;8.10;;
65368;SDS011;51970;53.484;49.488;2023-10-31T13:12:00;13.45;;;5.47;;
65368;SDS011;51970;53.484;49.488;2023-10-31T13:14:27;10.38;;;5.32;;
65368;SDS011;51970;53.484;49.488;2023-10-31T13:16:54;11.45;;;5.45;;
65368;SDS011;51970;53.484;49.488;2023-10-31T13:19:20;11.18;;;4.45;;
65368;SDS011;51970;53.484;49.488;2023-10-31T13:21:47;12.02;;;4.85;;
65368;SDS011;51970;53.484;49.488;2023-10-31T13:24:14;13.25;;;6.00;;
65368;SDS011;51970;53.484;49.488;2023-10-31T13:26:41;19.33;;;6.45;;
65368;SDS011;51970;53.484;49.488;2023-10-31T13:29:09;18.15;;;6.97;;
65368;SDS011;51970;53.484;49.488;2023-10-31T13:31:35;27.17;;;9.40;;
65368;SDS011;51970;53.484;49.488;2023-10-31T13:34:02;25.90;;;9.80;;
65368;SDS011;51970;53.484;49.488;2023-10-31T13:36:28;31.38;;;10.27;;
65368;SDS011;51970;53.484;49.488;2023-10-31T13:38:54;17.10;;;7.35;;
65368;SDS011;51970;53.484;49.488;2023-10-31T13:41:21;20.50;;;8.43;;
65368;SDS011;51970;53.484;49.488;2023-10-31T13:43:47;26.40;;;10.35;;
65368;SDS011;51970;53.484;49.488;2023-10-31T13:46:14;21.13;;;8.55;;
65368;SDS011;51970;53.484;49.488;2023-10-31T13:48:40;16.40;;;7.65;;
65368;SDS011;51970;53.484;49.488;2023-10-31T13:51:22;13.80;;;6.85;;
65368;SDS011;51970;53.484;49.488;2023-10-31T13:53:48;14.30;;;6.45;;
65368;SDS011;51970;53.484;49.488;2023-10-31T13:56:16;15.32;;;6.47;;
65368;SDS011;51970;53.484;49.488;2023-10-31T13:58:43;17.60;;;7.93;;
65368;SDS011;51970;53.484;49.488;2023-10-31T14:01:09;14.75;;;6.45;;
65368;SDS011;51970;53.484;49.488;2023-10-31T14:03:35;14.93;;;6.10;;
65368;SDS011;51970;53.484;49.488;2023-10-31T14:06:01;12.45;;;5.30;;
65368;SDS011;51970;53.484;49.488;2023-10-31T14:08:28;10.63;;;5.40;;
65368;SDS011;51970;53.484;49.488;2023-10-31T14:10:54;13.35;;;6.43;;
65368;SDS011;51970;53.484;49.488;2023-10-31T14:13:22;20.75;;;7.78;;
65368;SDS011;51970;53.484;49.488;2023-10-31T14:15:48;21.05;;;9.02;;
65368;SDS011;51970;53.484;49.488;2023-10-31T14:18:14;22.25;;;8.00;;
65368;SDS011;51970;53.484;49.488;2023-10-31T14:20:41;16.15;;;5.95;;
65368;SDS011;51970;53.484;49.488;2023-10-31T14:23:07;13.35;;;5.05;;
65368;SDS011;51970;53.484;49.488;2023-10-31T14:25:33;11.40;;;5.20;;
65368;SDS011;51970;53.484;49.488;2023-10-31T14:28:00;10.02;;;4.60;;
65368;SDS011;51970;53.484;49.488;2023-10-31T14:30:26;9.75;;;3.85;;
65368;SDS011;51970;53.484;49.488;2023-10-31T14:32:52;9.60;;;4.65;;
65368;SDS011;51970;53.484;49.488;2023-10-31T14:35:18;10.90;;;4.65;;
65368;SDS011;51970;53.484;49.488;2023-10-31T14:37:45;10.60;;;5.45;;